<?xml version='1.0' encoding='UTF-8'?><gpx version="1.1" creator="JPX - https://github.com/jenetics/jpx" xmlns="http://www.topografix.com/GPX/1/1"><trk><trkseg><trkpt lat="41.781507519531665" lon="13.00478053307672"><ele>259.0</ele><time>2026-04-18T11:28:36Z</time></trkpt><trkpt lat="41.781602793546035" lon="13.004688211621687"><ele>259.0</ele><time>2026-04-18T11:28:38Z</time></trkpt><trkpt lat="41.781676998501005" lon="13.00462995803044"><ele>259.0</ele><time>2026-04-18T11:28:39Z</time></trkpt><trkpt lat="41.78174669631085" lon="13.004571319776646"><ele>259.0</ele><time>2026-04-18T11:28:40Z</time></trkpt><trkpt lat="41.781816649393626" lon="13.004509738861147"><ele>259.0</ele><time>2026-04-18T11:28:41Z</time></trkpt><trkpt lat="41.78189141418878" lon="13.004458088249345"><ele>259.0</ele><time>2026-04-18T11:28:42Z</time></trkpt><trkpt lat="41.78195780574766" lon="13.004407360675474"><ele>259.0</ele><time>2026-04-18T11:28:43Z</time></trkpt><trkpt lat="41.78202448317452" lon="13.004355535685029"><ele>259.0</ele><time>2026-04-18T11:28:44Z</time></trkpt><trkpt lat="41.7820846750223" lon="13.004305699582385"><ele>259.0</ele><time>2026-04-18T11:28:45Z</time></trkpt><trkpt lat="41.78219124820069" lon="13.004211457514145"><ele>259.0</ele><time>2026-04-18T11:28:47Z</time></trkpt><trkpt lat="41.78225599737437" lon="13.004156665592298"><ele>259.0</ele><time>2026-04-18T11:28:48Z</time></trkpt><trkpt lat="41.78232125042285" lon="13.004108531444585"><ele>259.0</ele><time>2026-04-18T11:28:49Z</time></trkpt><trkpt lat="41.78243199425691" lon="13.004034112830187"><ele>259.0</ele><time>2026-04-18T11:28:51Z</time></trkpt><trkpt lat="41.78249936768635" lon="13.00398895328473"><ele>259.0</ele><time>2026-04-18T11:28:52Z</time></trkpt><trkpt lat="41.78261200411883" lon="13.003935166390226"><ele>259.0</ele><time>2026-04-18T11:28:53Z</time></trkpt><trkpt lat="41.78271869955262" lon="13.003907933559107"><ele>259.0</ele><time>2026-04-18T11:28:54Z</time></trkpt><trkpt lat="41.78280740173068" lon="13.003883190442364"><ele>258.66666666666663</ele><time>2026-04-18T11:28:55Z</time></trkpt><trkpt lat="41.782886732766386" lon="13.003861299887639"><ele>258.3333333333333</ele><time>2026-04-18T11:28:56Z</time></trkpt><trkpt lat="41.78295755381465" lon="13.003836899821602"><ele>258.0</ele><time>2026-04-18T11:28:57Z</time></trkpt><trkpt lat="41.783026408923185" lon="13.00381622310165"><ele>257.6666666666667</ele><time>2026-04-18T11:28:58Z</time></trkpt><trkpt lat="41.783092010315194" lon="13.003800900514213"><ele>257.33333333333337</ele><time>2026-04-18T11:28:59Z</time></trkpt><trkpt lat="41.783155855798825" lon="13.003781189605832"><ele>257.0</ele><time>2026-04-18T11:29:00Z</time></trkpt><trkpt lat="41.78326972604451" lon="13.003746017686272"><ele>257.0</ele><time>2026-04-18T11:29:02Z</time></trkpt><trkpt lat="41.78334251380142" lon="13.00372433267657"><ele>257.0</ele><time>2026-04-18T11:29:03Z</time></trkpt><trkpt lat="41.78341218252667" lon="13.00369927675585"><ele>257.0</ele><time>2026-04-18T11:29:04Z</time></trkpt><trkpt lat="41.783477259793386" lon="13.00369213237193"><ele>257.0</ele><time>2026-04-18T11:29:05Z</time></trkpt><trkpt lat="41.78353963188383" lon="13.00366219602553"><ele>257.0</ele><time>2026-04-18T11:29:06Z</time></trkpt><trkpt lat="41.78365534317715" lon="13.00361125456508"><ele>257.0</ele><time>2026-04-18T11:29:08Z</time></trkpt><trkpt lat="41.78370643245002" lon="13.003557381342343"><ele>256.6666666666667</ele><time>2026-04-18T11:29:09Z</time></trkpt><trkpt lat="41.78376573181425" lon="13.003499707878738"><ele>256.33333333333337</ele><time>2026-04-18T11:29:10Z</time></trkpt><trkpt lat="41.78383678154825" lon="13.003448219533"><ele>256.0</ele><time>2026-04-18T11:29:11Z</time></trkpt><trkpt lat="41.783912503880266" lon="13.003394314552532"><ele>255.66666666666669</ele><time>2026-04-18T11:29:12Z</time></trkpt><trkpt lat="41.78398310703372" lon="13.00335168369845"><ele>255.33333333333334</ele><time>2026-04-18T11:29:13Z</time></trkpt><trkpt lat="41.78404861694212" lon="13.00331152021547"><ele>255.0</ele><time>2026-04-18T11:29:14Z</time></trkpt><trkpt lat="41.784112552111786" lon="13.003279440174136"><ele>253.5</ele><time>2026-04-18T11:29:15Z</time></trkpt><trkpt lat="41.78419082663007" lon="13.00324734449596"><ele>252.0</ele><time>2026-04-18T11:29:17Z</time></trkpt><trkpt lat="41.784245375331636" lon="13.003195072845656"><ele>250.5</ele><time>2026-04-18T11:29:22Z</time></trkpt><trkpt lat="41.784302804842504" lon="13.00314187785228"><ele>249.0</ele><time>2026-04-18T11:29:24Z</time></trkpt><trkpt lat="41.784377845563604" lon="13.003063997520275"><ele>247.5</ele><time>2026-04-18T11:29:27Z</time></trkpt><trkpt lat="41.7844385275913" lon="13.002993938192525"><ele>246.0</ele><time>2026-04-18T11:29:29Z</time></trkpt><trkpt lat="41.78448612103637" lon="13.002937952455813"><ele>245.33333333333334</ele><time>2026-04-18T11:29:31Z</time></trkpt><trkpt lat="41.784518187084736" lon="13.00282251379854"><ele>244.66666666666669</ele><time>2026-04-18T11:29:34Z</time></trkpt><trkpt lat="41.78450389135589" lon="13.002706703648053"><ele>244.0</ele><time>2026-04-18T11:29:37Z</time></trkpt><trkpt lat="41.784482418354365" lon="13.002620131570053"><ele>243.33333333333334</ele><time>2026-04-18T11:29:39Z</time></trkpt><trkpt lat="41.784464219122896" lon="13.002519845099105"><ele>242.66666666666669</ele><time>2026-04-18T11:29:41Z</time></trkpt><trkpt lat="41.78444240569037" lon="13.002425744119591"><ele>242.0</ele><time>2026-04-18T11:29:43Z</time></trkpt><trkpt lat="41.78446105393386" lon="13.002304858552879"><ele>241.42857142857142</ele><time>2026-04-18T11:29:46Z</time></trkpt><trkpt lat="41.784523824500695" lon="13.002253883236882"><ele>240.85714285714283</ele><time>2026-04-18T11:29:51Z</time></trkpt><trkpt lat="41.78458973927743" lon="13.002237911483157"><ele>240.28571428571428</ele><time>2026-04-18T11:29:55Z</time></trkpt><trkpt lat="41.78465485526207" lon="13.00223508231699"><ele>239.71428571428572</ele><time>2026-04-18T11:30:17.999Z</time></trkpt><trkpt lat="41.78472274400486" lon="13.002244654298037"><ele>239.14285714285714</ele><time>2026-04-18T11:30:22.999Z</time></trkpt><trkpt lat="41.784789388813856" lon="13.002267394681214"><ele>238.57142857142856</ele><time>2026-04-18T11:30:27.999Z</time></trkpt><trkpt lat="41.78485131880509" lon="13.00229395731491"><ele>238.0</ele><time>2026-04-18T11:30:37.999Z</time></trkpt><trkpt lat="41.784916759463506" lon="13.00233779279828"><ele>237.99999999999997</ele><time>2026-04-18T11:30:42.999Z</time></trkpt><trkpt lat="41.78498121720849" lon="13.002407535873772"><ele>238.0</ele><time>2026-04-18T11:30:48.999Z</time></trkpt><trkpt lat="41.785038742821385" lon="13.00249494274164"><ele>238.0</ele><time>2026-04-18T11:30:52Z</time></trkpt><trkpt lat="41.78509602698486" lon="13.00257936306024"><ele>238.0</ele><time>2026-04-18T11:30:54Z</time></trkpt><trkpt lat="41.785171528535955" lon="13.002632354057814"><ele>237.99999999999997</ele><time>2026-04-18T11:30:56Z</time></trkpt><trkpt lat="41.78524346602389" lon="13.00261372769953"><ele>238.0</ele><time>2026-04-18T11:30:59Z</time></trkpt><trkpt lat="41.7853169101671" lon="13.0025709870631"><ele>237.28571428571428</ele><time>2026-04-18T11:31:02Z</time></trkpt><trkpt lat="41.785385653248014" lon="13.002531998601548"><ele>236.57142857142856</ele><time>2026-04-18T11:31:05Z</time></trkpt><trkpt lat="41.78545119129654" lon="13.002507431550445"><ele>235.85714285714286</ele><time>2026-04-18T11:31:08Z</time></trkpt><trkpt lat="41.78551090754437" lon="13.002469833631448"><ele>235.14285714285714</ele><time>2026-04-18T11:31:11Z</time></trkpt><trkpt lat="41.78558851166196" lon="13.002447925670165"><ele>234.42857142857142</ele><time>2026-04-18T11:31:14Z</time></trkpt><trkpt lat="41.78565704571943" lon="13.002449937053251"><ele>233.71428571428572</ele><time>2026-04-18T11:32:43.999Z</time></trkpt><trkpt lat="41.7857177395589" lon="13.002527704845273"><ele>233.0</ele><time>2026-04-18T11:32:48Z</time></trkpt><trkpt lat="41.78566526986977" lon="13.002474000245549"><ele>232.57142857142858</ele><time>2026-04-18T11:33:50Z</time></trkpt><trkpt lat="41.7856711660584" lon="13.002385137720509"><ele>232.1428571428571</ele><time>2026-04-18T11:34:33Z</time></trkpt><trkpt lat="41.78572422565594" lon="13.002312031065076"><ele>231.7142857142857</ele><time>2026-04-18T11:34:37Z</time></trkpt><trkpt lat="41.785759216489026" lon="13.002239736193628"><ele>231.28571428571428</ele><time>2026-04-18T11:34:40Z</time></trkpt><trkpt lat="41.785826566455334" lon="13.0022120956034"><ele>230.85714285714283</ele><time>2026-04-18T11:34:45Z</time></trkpt><trkpt lat="41.7858960193327" lon="13.002212777512847"><ele>230.4285714285714</ele><time>2026-04-18T11:34:49Z</time></trkpt><trkpt lat="41.78596522816322" lon="13.002225304151054"><ele>229.99999999999997</ele><time>2026-04-18T11:34:52Z</time></trkpt><trkpt lat="41.78602835680108" lon="13.002240147485587"><ele>229.16666666666669</ele><time>2026-04-18T11:35:49Z</time></trkpt><trkpt lat="41.786096355261726" lon="13.002283033996699"><ele>228.33333333333334</ele><time>2026-04-18T11:38:36Z</time></trkpt><trkpt lat="41.78617887859158" lon="13.00228739175545"><ele>227.5</ele><time>2026-04-18T11:38:40Z</time></trkpt><trkpt lat="41.7862221659218" lon="13.002210085033726"><ele>226.66666666666669</ele><time>2026-04-18T11:38:44Z</time></trkpt><trkpt lat="41.78628557458546" lon="13.002185899430568"><ele>225.83333333333334</ele><time>2026-04-18T11:39:01Z</time></trkpt><trkpt lat="41.78636410170611" lon="13.002280996559849"><ele>225.0</ele><time>2026-04-18T11:39:06Z</time></trkpt><trkpt lat="41.78643356254434" lon="13.002343633210824"><ele>225.00000000000003</ele><time>2026-04-18T11:40:58Z</time></trkpt><trkpt lat="41.78642436720539" lon="13.002445814651892"><ele>225.0</ele><time>2026-04-18T11:41:06Z</time></trkpt><trkpt lat="41.786469896086835" lon="13.002382912089338"><ele>225.00000000000003</ele><time>2026-04-18T11:41:42Z</time></trkpt><trkpt lat="41.78653012021753" lon="13.002342267976104"><ele>225.00000000000003</ele><time>2026-04-18T11:42:01Z</time></trkpt><trkpt lat="41.78657482967854" lon="13.00228174518964"><ele>225.0</ele><time>2026-04-18T11:42:06Z</time></trkpt><trkpt lat="41.786638091006374" lon="13.00225102671579"><ele>225.00000000000003</ele><time>2026-04-18T11:42:13Z</time></trkpt><trkpt lat="41.78671322683724" lon="13.002226221240244"><ele>225.00000000000003</ele><time>2026-04-18T11:42:20Z</time></trkpt><trkpt lat="41.78678268649776" lon="13.002217811607883"><ele>225.42857142857144</ele><time>2026-04-18T11:42:26Z</time></trkpt><trkpt lat="41.78685444503453" lon="13.002210122645208"><ele>225.85714285714286</ele><time>2026-04-18T11:42:32Z</time></trkpt><trkpt lat="41.78692013886952" lon="13.002228977720312"><ele>226.28571428571428</ele><time>2026-04-18T11:42:37Z</time></trkpt><trkpt lat="41.786985699756215" lon="13.002243674477862"><ele>226.71428571428572</ele><time>2026-04-18T11:42:43Z</time></trkpt><trkpt lat="41.787052268126175" lon="13.002272114782663"><ele>227.1428571428571</ele><time>2026-04-18T11:42:49Z</time></trkpt><trkpt lat="41.78712405817365" lon="13.002301219549196"><ele>227.57142857142856</ele><time>2026-04-18T11:42:54.999Z</time></trkpt><trkpt lat="41.78718926125071" lon="13.00231111694894"><ele>228.0</ele><time>2026-04-18T11:43:07.999Z</time></trkpt><trkpt lat="41.78725898940884" lon="13.002346196239134"><ele>228.0</ele><time>2026-04-18T11:43:15.999Z</time></trkpt><trkpt lat="41.787317657147675" lon="13.002393207049876"><ele>227.99999999999997</ele><time>2026-04-18T11:43:21.999Z</time></trkpt><trkpt lat="41.787383176364386" lon="13.00241859171575"><ele>228.0</ele><time>2026-04-18T11:43:28Z</time></trkpt><trkpt lat="41.78745142319374" lon="13.00245199182955"><ele>228.0</ele><time>2026-04-18T11:43:34Z</time></trkpt><trkpt lat="41.78751496226035" lon="13.002487864394418"><ele>227.99999999999997</ele><time>2026-04-18T11:43:40Z</time></trkpt><trkpt lat="41.78757650344814" lon="13.002534094029"><ele>228.0</ele><time>2026-04-18T11:43:46Z</time></trkpt><trkpt lat="41.78763746869186" lon="13.002572453410743"><ele>228.0</ele><time>2026-04-18T11:43:52Z</time></trkpt><trkpt lat="41.78769704308819" lon="13.002608271164412"><ele>228.28571428571428</ele><time>2026-04-18T11:43:58Z</time></trkpt><trkpt lat="41.78775213074011" lon="13.002662580458708"><ele>228.57142857142856</ele><time>2026-04-18T11:44:03Z</time></trkpt><trkpt lat="41.787818966453905" lon="13.002706695220413"><ele>228.85714285714283</ele><time>2026-04-18T11:44:09Z</time></trkpt><trkpt lat="41.78788379819538" lon="13.00269211218912"><ele>229.1428571428571</ele><time>2026-04-18T11:44:13Z</time></trkpt><trkpt lat="41.787945553103214" lon="13.002636616831804"><ele>229.42857142857142</ele><time>2026-04-18T11:44:19Z</time></trkpt><trkpt lat="41.78801025508785" lon="13.002653027587934"><ele>229.71428571428567</ele><time>2026-04-18T11:44:24Z</time></trkpt><trkpt lat="41.787942127361326" lon="13.002629627426089"><ele>229.99999999999997</ele><time>2026-04-18T11:44:48Z</time></trkpt><trkpt lat="41.787882038702435" lon="13.002600843295781"><ele>229.99999999999997</ele><time>2026-04-18T11:44:54Z</time></trkpt><trkpt lat="41.78781397083836" lon="13.002571193547231"><ele>230.0</ele><time>2026-04-18T11:44:59.998Z</time></trkpt><trkpt lat="41.78774868321626" lon="13.002547302900508"><ele>229.99999999999997</ele><time>2026-04-18T11:45:05.999Z</time></trkpt><trkpt lat="41.787692061823115" lon="13.002508915133971"><ele>229.99999999999997</ele><time>2026-04-18T11:45:11.999Z</time></trkpt><trkpt lat="41.7876348590961" lon="13.00246955911665"><ele>230.0</ele><time>2026-04-18T11:45:16.999Z</time></trkpt><trkpt lat="41.78757402073187" lon="13.002440172578579"><ele>229.99999999999997</ele><time>2026-04-18T11:45:21.999Z</time></trkpt><trkpt lat="41.78748962925199" lon="13.002390149007862"><ele>229.99999999999997</ele><time>2026-04-18T11:45:24.999Z</time></trkpt><trkpt lat="41.78742760936486" lon="13.002371466574179"><ele>229.71428571428567</ele><time>2026-04-18T11:45:32.999Z</time></trkpt><trkpt lat="41.787366830338186" lon="13.002332560351181"><ele>229.42857142857142</ele><time>2026-04-18T11:45:39Z</time></trkpt><trkpt lat="41.78728926963917" lon="13.002325537025202"><ele>229.1428571428571</ele><time>2026-04-18T11:45:45Z</time></trkpt><trkpt lat="41.78722412697036" lon="13.002326626701812"><ele>228.85714285714283</ele><time>2026-04-18T11:45:50Z</time></trkpt><trkpt lat="41.78715952126842" lon="13.002310367977783"><ele>228.57142857142856</ele><time>2026-04-18T11:45:56Z</time></trkpt><trkpt lat="41.78709797126518" lon="13.002271549035889"><ele>228.28571428571428</ele><time>2026-04-18T11:46:02Z</time></trkpt><trkpt lat="41.78703527561754" lon="13.00224863284037"><ele>228.0</ele><time>2026-04-18T11:46:07Z</time></trkpt><trkpt lat="41.786973250391156" lon="13.002229717630485"><ele>228.0</ele><time>2026-04-18T11:46:12Z</time></trkpt><trkpt lat="41.78690991396425" lon="13.002217765851201"><ele>227.99999999999997</ele><time>2026-04-18T11:46:17Z</time></trkpt><trkpt lat="41.786846302356956" lon="13.00219609648365"><ele>228.0</ele><time>2026-04-18T11:46:23Z</time></trkpt><trkpt lat="41.78677375368754" lon="13.002202036581549"><ele>228.0</ele><time>2026-04-18T11:46:28Z</time></trkpt><trkpt lat="41.78671023580408" lon="13.002214869842359"><ele>227.99999999999997</ele><time>2026-04-18T11:46:33Z</time></trkpt><trkpt lat="41.78663757962147" lon="13.002231809080875"><ele>228.0</ele><time>2026-04-18T11:46:39Z</time></trkpt><trkpt lat="41.786572575524055" lon="13.002276403324059"><ele>228.0</ele><time>2026-04-18T11:46:45Z</time></trkpt><trkpt lat="41.78651023625592" lon="13.002330439174477"><ele>228.0</ele><time>2026-04-18T11:46:51Z</time></trkpt><trkpt lat="41.78645020394006" lon="13.002367990468514"><ele>228.0</ele><time>2026-04-18T11:46:56Z</time></trkpt><trkpt lat="41.78651562031264" lon="13.002376706104487"><ele>228.0</ele><time>2026-04-18T11:52:54.001Z</time></trkpt><trkpt lat="41.786571143661554" lon="13.002322440595606"><ele>228.0</ele><time>2026-04-18T11:54:43.001Z</time></trkpt><trkpt lat="41.786673104621954" lon="13.00224711373475"><ele>228.0</ele><time>2026-04-18T11:54:45.001Z</time></trkpt><trkpt lat="41.786762978908946" lon="13.002205256336563"><ele>228.0</ele><time>2026-04-18T11:54:47.001Z</time></trkpt><trkpt lat="41.78686559955305" lon="13.002205694630069"><ele>228.0</ele><time>2026-04-18T11:54:49.001Z</time></trkpt><trkpt lat="41.78697506937761" lon="13.002249277946438"><ele>228.0</ele><time>2026-04-18T11:54:51.001Z</time></trkpt><trkpt lat="41.78703983756527" lon="13.002278313101588"><ele>228.0</ele><time>2026-04-18T11:54:52.001Z</time></trkpt><trkpt lat="41.78710955779315" lon="13.002303793748741"><ele>228.0</ele><time>2026-04-18T11:54:53.001Z</time></trkpt><trkpt lat="41.78722906248891" lon="13.002358371170274"><ele>228.0</ele><time>2026-04-18T11:54:55.001Z</time></trkpt><trkpt lat="41.7872956394807" lon="13.002395896829963"><ele>228.0</ele><time>2026-04-18T11:54:56.001Z</time></trkpt><trkpt lat="41.787376056140126" lon="13.002436041484556"><ele>228.0</ele><time>2026-04-18T11:54:57.001Z</time></trkpt><trkpt lat="41.78745096711246" lon="13.002475083516744"><ele>228.0</ele><time>2026-04-18T11:54:58.001Z</time></trkpt><trkpt lat="41.78752546079258" lon="13.002519752869496"><ele>228.0</ele><time>2026-04-18T11:54:59.001Z</time></trkpt><trkpt lat="41.78759902409731" lon="13.002562832100871"><ele>228.0</ele><time>2026-04-18T11:55:00.001Z</time></trkpt><trkpt lat="41.78766585939419" lon="13.002600536364014"><ele>228.0</ele><time>2026-04-18T11:55:01.001Z</time></trkpt><trkpt lat="41.78776597162713" lon="13.002678510961376"><ele>228.33333333333334</ele><time>2026-04-18T11:55:03.001Z</time></trkpt><trkpt lat="41.78784342618224" lon="13.002738623713439"><ele>228.66666666666669</ele><time>2026-04-18T11:55:05.001Z</time></trkpt><trkpt lat="41.78790844815179" lon="13.002715017894385"><ele>229.0</ele><time>2026-04-18T11:55:07.001Z</time></trkpt><trkpt lat="41.78794546362005" lon="13.002634373970286"><ele>229.33333333333334</ele><time>2026-04-18T11:55:09.001Z</time></trkpt><trkpt lat="41.788013272343804" lon="13.002648480548979"><ele>229.66666666666669</ele><time>2026-04-18T11:55:53Z</time></trkpt><trkpt lat="41.78809342176803" lon="13.00272960786432"><ele>230.0</ele><time>2026-04-18T11:55:55Z</time></trkpt><trkpt lat="41.7881976075318" lon="13.002819497695892"><ele>230.00000000000003</ele><time>2026-04-18T11:55:57Z</time></trkpt><trkpt lat="41.78825520649611" lon="13.002873016962816"><ele>230.0</ele><time>2026-04-18T11:55:58Z</time></trkpt><trkpt lat="41.78831099885426" lon="13.002928090984609"><ele>230.0</ele><time>2026-04-18T11:55:59Z</time></trkpt><trkpt lat="41.78840601230331" lon="13.003012148941034"><ele>230.0</ele><time>2026-04-18T11:56:01Z</time></trkpt><trkpt lat="41.78850313250393" lon="13.003103235860566"><ele>230.00000000000003</ele><time>2026-04-18T11:56:03Z</time></trkpt><trkpt lat="41.78856347484897" lon="13.003162781522436"><ele>230.0</ele><time>2026-04-18T11:56:04Z</time></trkpt><trkpt lat="41.788625575885455" lon="13.003217816569126"><ele>229.83333333333334</ele><time>2026-04-18T11:56:05Z</time></trkpt><trkpt lat="41.78869059754442" lon="13.003279817845968"><ele>229.66666666666669</ele><time>2026-04-18T11:56:06Z</time></trkpt><trkpt lat="41.78875270967687" lon="13.00335294148532"><ele>229.5</ele><time>2026-04-18T11:56:07Z</time></trkpt><trkpt lat="41.788824106341146" lon="13.003419939723731"><ele>229.33333333333331</ele><time>2026-04-18T11:56:08Z</time></trkpt><trkpt lat="41.78888698912692" lon="13.003481034467722"><ele>229.16666666666666</ele><time>2026-04-18T11:56:09Z</time></trkpt><trkpt lat="41.78894580646057" lon="13.003536060536696"><ele>229.0</ele><time>2026-04-18T11:56:10Z</time></trkpt><trkpt lat="41.78900400789736" lon="13.003591888779615"><ele>228.66666666666666</ele><time>2026-04-18T11:56:11Z</time></trkpt><trkpt lat="41.78906152054317" lon="13.003653953421319"><ele>228.33333333333331</ele><time>2026-04-18T11:56:12Z</time></trkpt><trkpt lat="41.789128653807346" lon="13.003715678188394"><ele>228.0</ele><time>2026-04-18T11:56:13Z</time></trkpt><trkpt lat="41.789184313284615" lon="13.00376909147874"><ele>227.66666666666669</ele><time>2026-04-18T11:56:14Z</time></trkpt><trkpt lat="41.7892485198816" lon="13.003834693191342"><ele>227.33333333333334</ele><time>2026-04-18T11:56:15Z</time></trkpt><trkpt lat="41.789310523552146" lon="13.003896830700965"><ele>227.0</ele><time>2026-04-18T11:56:16Z</time></trkpt><trkpt lat="41.7893832167319" lon="13.00396669310063"><ele>227.00000000000003</ele><time>2026-04-18T11:56:17Z</time></trkpt><trkpt lat="41.78945581881739" lon="13.00403333291082"><ele>227.0</ele><time>2026-04-18T11:56:18Z</time></trkpt><trkpt lat="41.78949640947993" lon="13.004103396531386"><ele>227.0</ele><time>2026-04-18T11:56:19Z</time></trkpt><trkpt lat="41.78956365384506" lon="13.00414961309483"><ele>227.0</ele><time>2026-04-18T11:56:20Z</time></trkpt><trkpt lat="41.78967637257225" lon="13.004258841487898"><ele>227.00000000000003</ele><time>2026-04-18T11:56:22Z</time></trkpt><trkpt lat="41.78973838333462" lon="13.004320728368826"><ele>227.0</ele><time>2026-04-18T11:56:23Z</time></trkpt><trkpt lat="41.789800853816445" lon="13.004380425244861"><ele>226.83333333333334</ele><time>2026-04-18T11:56:24Z</time></trkpt><trkpt lat="41.78986079756441" lon="13.004435670838193"><ele>226.66666666666669</ele><time>2026-04-18T11:56:25Z</time></trkpt><trkpt lat="41.78991642938208" lon="13.004520162787287"><ele>226.5</ele><time>2026-04-18T11:56:26.001Z</time></trkpt><trkpt lat="41.79002152586357" lon="13.004598734476627"><ele>226.33333333333331</ele><time>2026-04-18T11:56:28.001Z</time></trkpt><trkpt lat="41.79008013181024" lon="13.004651421133955"><ele>226.16666666666666</ele><time>2026-04-18T11:56:29.001Z</time></trkpt><trkpt lat="41.79013636668429" lon="13.004703690606199"><ele>226.0</ele><time>2026-04-18T11:56:30.001Z</time></trkpt><trkpt lat="41.790197787808836" lon="13.004771524545086"><ele>226.4</ele><time>2026-04-18T11:56:31.001Z</time></trkpt><trkpt lat="41.790272668245834" lon="13.004841440185409"><ele>226.8</ele><time>2026-04-18T11:56:32.001Z</time></trkpt><trkpt lat="41.79034770743966" lon="13.004920311609625"><ele>227.20000000000002</ele><time>2026-04-18T11:56:33.001Z</time></trkpt><trkpt lat="41.790431993648376" lon="13.004995275063102"><ele>227.60000000000002</ele><time>2026-04-18T11:56:34.001Z</time></trkpt><trkpt lat="41.79051461687473" lon="13.005076316488665"><ele>228.0</ele><time>2026-04-18T11:56:35.001Z</time></trkpt><trkpt lat="41.79059388999708" lon="13.005152366796723"><ele>228.16666666666666</ele><time>2026-04-18T11:56:36.001Z</time></trkpt><trkpt lat="41.79066776250168" lon="13.005219476730076"><ele>228.33333333333331</ele><time>2026-04-18T11:56:37.001Z</time></trkpt><trkpt lat="41.790726541136586" lon="13.005278964502859"><ele>228.5</ele><time>2026-04-18T11:56:38.001Z</time></trkpt><trkpt lat="41.790789197923615" lon="13.005336639546405"><ele>228.66666666666666</ele><time>2026-04-18T11:56:39.001Z</time></trkpt><trkpt lat="41.7908531192348" lon="13.005399373695825"><ele>228.83333333333331</ele><time>2026-04-18T11:56:40.001Z</time></trkpt><trkpt lat="41.79092530006536" lon="13.005467150132219"><ele>229.0</ele><time>2026-04-18T11:56:41.001Z</time></trkpt><trkpt lat="41.790995806524045" lon="13.005536746845525"><ele>229.79999999999998</ele><time>2026-04-18T11:56:42.001Z</time></trkpt><trkpt lat="41.79106903914243" lon="13.005611209177296"><ele>230.59999999999997</ele><time>2026-04-18T11:56:43.001Z</time></trkpt><trkpt lat="41.79113967276505" lon="13.005686255237684"><ele>231.4</ele><time>2026-04-18T11:56:44.001Z</time></trkpt><trkpt lat="41.791217385270514" lon="13.005769174000132"><ele>232.2</ele><time>2026-04-18T11:56:45.001Z</time></trkpt><trkpt lat="41.79128909276125" lon="13.005840720890351"><ele>233.0</ele><time>2026-04-18T11:56:46.001Z</time></trkpt><trkpt lat="41.79135825903606" lon="13.005911520721344"><ele>233.00000000000003</ele><time>2026-04-18T11:56:47.001Z</time></trkpt><trkpt lat="41.79142990739956" lon="13.005972900756596"><ele>233.0</ele><time>2026-04-18T11:56:48.001Z</time></trkpt><trkpt lat="41.79149742007928" lon="13.006040888523103"><ele>233.0</ele><time>2026-04-18T11:56:49.001Z</time></trkpt><trkpt lat="41.79156627332784" lon="13.006109329912018"><ele>233.0</ele><time>2026-04-18T11:56:50.001Z</time></trkpt><trkpt lat="41.79163689286824" lon="13.00617512602754"><ele>233.00000000000003</ele><time>2026-04-18T11:56:51.001Z</time></trkpt><trkpt lat="41.79170274709031" lon="13.006243434851374"><ele>233.0</ele><time>2026-04-18T11:56:52.001Z</time></trkpt><trkpt lat="41.791776149148745" lon="13.006308788765034"><ele>233.33333333333334</ele><time>2026-04-18T11:56:53.001Z</time></trkpt><trkpt lat="41.79184719990589" lon="13.00638296996226"><ele>233.66666666666669</ele><time>2026-04-18T11:56:54.001Z</time></trkpt><trkpt lat="41.79191268716473" lon="13.006447538902087"><ele>234.0</ele><time>2026-04-18T11:56:55.001Z</time></trkpt><trkpt lat="41.79198329368516" lon="13.006513797039343"><ele>234.33333333333331</ele><time>2026-04-18T11:56:56.001Z</time></trkpt><trkpt lat="41.79204909938396" lon="13.006574163587683"><ele>234.66666666666666</ele><time>2026-04-18T11:56:57.001Z</time></trkpt><trkpt lat="41.79211448751063" lon="13.006642708143506"><ele>235.0</ele><time>2026-04-18T11:56:58.001Z</time></trkpt><trkpt lat="41.79218456857982" lon="13.006715113572923"><ele>235.0</ele><time>2026-04-18T11:56:59.001Z</time></trkpt><trkpt lat="41.79225783644798" lon="13.006789503880116"><ele>235.0</ele><time>2026-04-18T11:57:00.001Z</time></trkpt><trkpt lat="41.792329378623336" lon="13.00685936732607"><ele>235.0</ele><time>2026-04-18T11:57:01.001Z</time></trkpt><trkpt lat="41.79240508165953" lon="13.006934905298817"><ele>235.0</ele><time>2026-04-18T11:57:02.001Z</time></trkpt><trkpt lat="41.79248150830387" lon="13.007006641384399"><ele>235.0</ele><time>2026-04-18T11:57:03.001Z</time></trkpt><trkpt lat="41.79254579219965" lon="13.007079411893187"><ele>234.99999999999997</ele><time>2026-04-18T11:57:04.001Z</time></trkpt><trkpt lat="41.79259977033023" lon="13.007141335103073"><ele>235.0</ele><time>2026-04-18T11:57:05.001Z</time></trkpt><trkpt lat="41.79266376259234" lon="13.007215598370403"><ele>235.0</ele><time>2026-04-18T11:57:06.001Z</time></trkpt><trkpt lat="41.79273143312732" lon="13.007284556732262"><ele>235.0</ele><time>2026-04-18T11:57:07.001Z</time></trkpt><trkpt lat="41.79279958863946" lon="13.007353426299533"><ele>234.99999999999997</ele><time>2026-04-18T11:57:08.001Z</time></trkpt><trkpt lat="41.79286004094241" lon="13.007416738324357"><ele>235.0</ele><time>2026-04-18T11:57:09.001Z</time></trkpt><trkpt lat="41.792930167159376" lon="13.007479006262933"><ele>235.16666666666666</ele><time>2026-04-18T11:57:10.001Z</time></trkpt><trkpt lat="41.79299310435352" lon="13.007545314599513"><ele>235.33333333333331</ele><time>2026-04-18T11:57:11.001Z</time></trkpt><trkpt lat="41.79306331897501" lon="13.007612182786476"><ele>235.5</ele><time>2026-04-18T11:57:12.001Z</time></trkpt><trkpt lat="41.79312426936089" lon="13.007676087024507"><ele>235.66666666666669</ele><time>2026-04-18T11:57:13.001Z</time></trkpt><trkpt lat="41.79318624231323" lon="13.007746868276175"><ele>235.83333333333334</ele><time>2026-04-18T11:57:14.001Z</time></trkpt><trkpt lat="41.79325632153025" lon="13.007804990017096"><ele>236.0</ele><time>2026-04-18T11:57:15.001Z</time></trkpt><trkpt lat="41.793321067861626" lon="13.00787290777828"><ele>236.0</ele><time>2026-04-18T11:57:16.001Z</time></trkpt><trkpt lat="41.79339135595118" lon="13.00794056290527"><ele>236.00000000000003</ele><time>2026-04-18T11:57:17.001Z</time></trkpt><trkpt lat="41.793463695914916" lon="13.008011524881798"><ele>236.00000000000003</ele><time>2026-04-18T11:57:18.001Z</time></trkpt><trkpt lat="41.79353608892687" lon="13.008081324282623"><ele>236.0</ele><time>2026-04-18T11:57:19.001Z</time></trkpt><trkpt lat="41.793608985882" lon="13.00815274356136"><ele>236.0</ele><time>2026-04-18T11:57:20.001Z</time></trkpt><trkpt lat="41.7936886184483" lon="13.008226762571052"><ele>236.60000000000002</ele><time>2026-04-18T11:57:21.002Z</time></trkpt><trkpt lat="41.79375905480671" lon="13.008297311232552"><ele>237.20000000000002</ele><time>2026-04-18T11:57:22.002Z</time></trkpt><trkpt lat="41.79383284310508" lon="13.008363651523736"><ele>237.79999999999998</ele><time>2026-04-18T11:57:23.002Z</time></trkpt><trkpt lat="41.79391123711567" lon="13.008441423178388"><ele>238.39999999999998</ele><time>2026-04-18T11:57:24.002Z</time></trkpt><trkpt lat="41.793978997505505" lon="13.008512451387416"><ele>239.0</ele><time>2026-04-18T11:57:25.002Z</time></trkpt><trkpt lat="41.79405891237139" lon="13.008587148033563"><ele>239.0</ele><time>2026-04-18T11:57:26.002Z</time></trkpt><trkpt lat="41.79413729412046" lon="13.008655789588556"><ele>238.99999999999997</ele><time>2026-04-18T11:57:27.002Z</time></trkpt><trkpt lat="41.79421960136582" lon="13.00873600951143"><ele>238.99999999999997</ele><time>2026-04-18T11:57:28.002Z</time></trkpt><trkpt lat="41.79430157049929" lon="13.008814023194049"><ele>239.0</ele><time>2026-04-18T11:57:29.002Z</time></trkpt><trkpt lat="41.79438286252887" lon="13.008897012384606"><ele>239.0</ele><time>2026-04-18T11:57:30.002Z</time></trkpt><trkpt lat="41.79446710301549" lon="13.008979307656354"><ele>239.39999999999998</ele><time>2026-04-18T11:57:31.002Z</time></trkpt><trkpt lat="41.79455093735955" lon="13.009057709228404"><ele>239.79999999999998</ele><time>2026-04-18T11:57:31.999Z</time></trkpt><trkpt lat="41.79463072649763" lon="13.009142867457246"><ele>240.20000000000002</ele><time>2026-04-18T11:57:32.999Z</time></trkpt><trkpt lat="41.79471368759662" lon="13.009228731927406"><ele>240.60000000000002</ele><time>2026-04-18T11:57:33.999Z</time></trkpt><trkpt lat="41.794794401941125" lon="13.009305228202853"><ele>241.0</ele><time>2026-04-18T11:57:34.999Z</time></trkpt><trkpt lat="41.794870194292066" lon="13.009378753870855"><ele>241.16666666666666</ele><time>2026-04-18T11:57:35.999Z</time></trkpt><trkpt lat="41.79493791803961" lon="13.009447278483584"><ele>241.33333333333331</ele><time>2026-04-18T11:57:36.999Z</time></trkpt><trkpt lat="41.79500381659059" lon="13.009505506712596"><ele>241.5</ele><time>2026-04-18T11:57:37.999Z</time></trkpt><trkpt lat="41.795068974180914" lon="13.009558693784786"><ele>241.66666666666669</ele><time>2026-04-18T11:57:38.999Z</time></trkpt><trkpt lat="41.79512272463228" lon="13.009623491198077"><ele>241.83333333333334</ele><time>2026-04-18T11:57:40Z</time></trkpt><trkpt lat="41.795186506987825" lon="13.009680243291772"><ele>242.0</ele><time>2026-04-18T11:57:41Z</time></trkpt><trkpt lat="41.795256896211114" lon="13.009729171246635"><ele>242.66666666666669</ele><time>2026-04-18T11:57:42Z</time></trkpt><trkpt lat="41.79537235588054" lon="13.009835300281436"><ele>243.33333333333334</ele><time>2026-04-18T11:57:44Z</time></trkpt><trkpt lat="41.79543255887364" lon="13.009896604020529"><ele>244.0</ele><time>2026-04-18T11:57:45Z</time></trkpt><trkpt lat="41.79549430533141" lon="13.009953540040948"><ele>244.66666666666669</ele><time>2026-04-18T11:57:46Z</time></trkpt><trkpt lat="41.79554801566067" lon="13.010009949083473"><ele>245.33333333333334</ele><time>2026-04-18T11:57:47Z</time></trkpt><trkpt lat="41.79560430612397" lon="13.010068643558402"><ele>246.0</ele><time>2026-04-18T11:57:48Z</time></trkpt><trkpt lat="41.79567133011135" lon="13.010137534700814"><ele>246.5</ele><time>2026-04-18T11:57:49Z</time></trkpt><trkpt lat="41.79573566165641" lon="13.010198930758268"><ele>247.0</ele><time>2026-04-18T11:57:50Z</time></trkpt><trkpt lat="41.795857163169636" lon="13.010319531347664"><ele>247.5</ele><time>2026-04-18T11:57:52Z</time></trkpt><trkpt lat="41.79598597580603" lon="13.010437658950721"><ele>248.0</ele><time>2026-04-18T11:57:54Z</time></trkpt><trkpt lat="41.796047854813246" lon="13.010487979226605"><ele>249.16666666666669</ele><time>2026-04-18T11:57:55Z</time></trkpt><trkpt lat="41.796101232642044" lon="13.01053932655318"><ele>250.33333333333334</ele><time>2026-04-18T11:57:56Z</time></trkpt><trkpt lat="41.79615826160032" lon="13.010581795777595"><ele>251.5</ele><time>2026-04-18T11:57:57Z</time></trkpt><trkpt lat="41.796268659750126" lon="13.010651535151748"><ele>252.66666666666669</ele><time>2026-04-18T11:57:59Z</time></trkpt><trkpt lat="41.79628384171191" lon="13.010736135048784"><ele>253.83333333333334</ele><time>2026-04-18T11:58:00Z</time></trkpt><trkpt lat="41.796315650136826" lon="13.010883314380093"><ele>255.0</ele><time>2026-04-18T11:58:02Z</time></trkpt><trkpt lat="41.796364055603185" lon="13.011019688148915"><ele>255.0</ele><time>2026-04-18T11:58:04Z</time></trkpt><trkpt lat="41.796429746385186" lon="13.011149008451536"><ele>255.0</ele><time>2026-04-18T11:58:06Z</time></trkpt><trkpt lat="41.79650767844098" lon="13.011246522457533"><ele>255.0</ele><time>2026-04-18T11:58:08Z</time></trkpt><trkpt lat="41.79657457886175" lon="13.011358595984017"><ele>255.0</ele><time>2026-04-18T11:58:10Z</time></trkpt><trkpt lat="41.79662401157379" lon="13.011488747250025"><ele>255.0</ele><time>2026-04-18T11:58:12Z</time></trkpt><trkpt lat="41.79662913214601" lon="13.011580169555064"><ele>255.0</ele><time>2026-04-18T11:58:13Z</time></trkpt><trkpt lat="41.79666525746593" lon="13.011661060845903"><ele>255.0</ele><time>2026-04-18T11:58:14Z</time></trkpt><trkpt lat="41.796685179919194" lon="13.011755020043886"><ele>255.0</ele><time>2026-04-18T11:58:15Z</time></trkpt><trkpt lat="41.79671718840516" lon="13.011906543210879"><ele>255.0</ele><time>2026-04-18T11:58:17.001Z</time></trkpt><trkpt lat="41.79671110854485" lon="13.01199594687625"><ele>255.0</ele><time>2026-04-18T11:58:18.001Z</time></trkpt><trkpt lat="41.79673955995369" lon="13.012088651100818"><ele>255.0</ele><time>2026-04-18T11:58:19.001Z</time></trkpt><trkpt lat="41.79675262115441" lon="13.012197878652918"><ele>255.0</ele><time>2026-04-18T11:58:20.001Z</time></trkpt><trkpt lat="41.79676733730177" lon="13.012320544223497"><ele>255.0</ele><time>2026-04-18T11:58:21.001Z</time></trkpt><trkpt lat="41.79679303950144" lon="13.012469140545711"><ele>255.0</ele><time>2026-04-18T11:58:22.001Z</time></trkpt><trkpt lat="41.79681756647058" lon="13.012617326351968"><ele>255.0</ele><time>2026-04-18T11:58:23.001Z</time></trkpt><trkpt lat="41.79684473810923" lon="13.012771172844596"><ele>255.0</ele><time>2026-04-18T11:58:24.001Z</time></trkpt><trkpt lat="41.79687138882342" lon="13.01292691441286"><ele>254.2</ele><time>2026-04-18T11:58:25.001Z</time></trkpt><trkpt lat="41.7968936439058" lon="13.01307793389373"><ele>253.4</ele><time>2026-04-18T11:58:26.001Z</time></trkpt><trkpt lat="41.79692249093092" lon="13.013208734848341"><ele>252.60000000000002</ele><time>2026-04-18T11:58:27.001Z</time></trkpt><trkpt lat="41.79694000089475" lon="13.013349603883306"><ele>251.8</ele><time>2026-04-18T11:58:28.001Z</time></trkpt><trkpt lat="41.79695903784589" lon="13.013485760935284"><ele>251.0</ele><time>2026-04-18T11:58:29.001Z</time></trkpt><trkpt lat="41.796980247535906" lon="13.013619080823792"><ele>250.4</ele><time>2026-04-18T11:58:30.001Z</time></trkpt><trkpt lat="41.79700300040481" lon="13.01375459175111"><ele>249.8</ele><time>2026-04-18T11:58:31.001Z</time></trkpt><trkpt lat="41.797025753792575" lon="13.013894458096726"><ele>249.20000000000002</ele><time>2026-04-18T11:58:32.001Z</time></trkpt><trkpt lat="41.79704806500316" lon="13.014038884117305"><ele>248.60000000000002</ele><time>2026-04-18T11:58:33.001Z</time></trkpt><trkpt lat="41.79707171400104" lon="13.014183423252298"><ele>248.0</ele><time>2026-04-18T11:58:34.001Z</time></trkpt><trkpt lat="41.79709862250866" lon="13.014333330117065"><ele>247.0</ele><time>2026-04-18T11:58:35.001Z</time></trkpt><trkpt lat="41.79712296323134" lon="13.01449198979526"><ele>246.0</ele><time>2026-04-18T11:58:36.001Z</time></trkpt><trkpt lat="41.79714839722938" lon="13.014650690510136"><ele>245.0</ele><time>2026-04-18T11:58:37.001Z</time></trkpt><trkpt lat="41.79717573951511" lon="13.014818039085187"><ele>244.0</ele><time>2026-04-18T11:58:38.001Z</time></trkpt><trkpt lat="41.79720579343881" lon="13.014988765444668"><ele>243.0</ele><time>2026-04-18T11:58:39.001Z</time></trkpt><trkpt lat="41.797232448363374" lon="13.015155482491574"><ele>242.0</ele><time>2026-04-18T11:58:40.001Z</time></trkpt><trkpt lat="41.79725722731244" lon="13.015304912459056"><ele>241.0</ele><time>2026-04-18T11:58:41.001Z</time></trkpt><trkpt lat="41.79728353417927" lon="13.015462931358739"><ele>240.0</ele><time>2026-04-18T11:58:42.001Z</time></trkpt><trkpt lat="41.79731054275139" lon="13.01561697778366"><ele>240.0</ele><time>2026-04-18T11:58:43.001Z</time></trkpt><trkpt lat="41.797335604038615" lon="13.01577418260101"><ele>240.0</ele><time>2026-04-18T11:58:44.001Z</time></trkpt><trkpt lat="41.79735803545112" lon="13.015928085050318"><ele>240.0</ele><time>2026-04-18T11:58:45.001Z</time></trkpt><trkpt lat="41.7973835339334" lon="13.016084509787019"><ele>240.0</ele><time>2026-04-18T11:58:46.001Z</time></trkpt><trkpt lat="41.797403365475596" lon="13.016226571769566"><ele>239.6</ele><time>2026-04-18T11:58:47.001Z</time></trkpt><trkpt lat="41.79742229958089" lon="13.016365936373301"><ele>239.2</ele><time>2026-04-18T11:58:48.001Z</time></trkpt><trkpt lat="41.797468021124786" lon="13.01648015144562"><ele>238.8</ele><time>2026-04-18T11:58:49.001Z</time></trkpt><trkpt lat="41.7975161516951" lon="13.016576650659003"><ele>238.4</ele><time>2026-04-18T11:58:50.001Z</time></trkpt><trkpt lat="41.79756737498335" lon="13.01668114438888"><ele>238.0</ele><time>2026-04-18T11:58:51.001Z</time></trkpt><trkpt lat="41.797637276320316" lon="13.016787185747198"><ele>237.60000000000002</ele><time>2026-04-18T11:58:52.001Z</time></trkpt><trkpt lat="41.79770495213156" lon="13.016887810815435"><ele>237.20000000000002</ele><time>2026-04-18T11:58:53.001Z</time></trkpt><trkpt lat="41.7977685153696" lon="13.016983595859605"><ele>236.8</ele><time>2026-04-18T11:58:54.001Z</time></trkpt><trkpt lat="41.797828534225175" lon="13.01707211542899"><ele>236.4</ele><time>2026-04-18T11:58:55.001Z</time></trkpt><trkpt lat="41.797882955420945" lon="13.017156986083098"><ele>236.0</ele><time>2026-04-18T11:58:56.001Z</time></trkpt><trkpt lat="41.79793753513467" lon="13.01724648514776"><ele>236.00000000000003</ele><time>2026-04-18T11:58:57.001Z</time></trkpt><trkpt lat="41.79799678178694" lon="13.017337382311418"><ele>236.0</ele><time>2026-04-18T11:58:58.001Z</time></trkpt><trkpt lat="41.798059495960636" lon="13.017435063495874"><ele>236.0</ele><time>2026-04-18T11:58:59.001Z</time></trkpt><trkpt lat="41.79811419581194" lon="13.017529399805143"><ele>236.0</ele><time>2026-04-18T11:59:00.001Z</time></trkpt><trkpt lat="41.79816628209136" lon="13.017617862062064"><ele>236.00000000000003</ele><time>2026-04-18T11:59:01.001Z</time></trkpt><trkpt lat="41.79820779675401" lon="13.017706495969783"><ele>236.0</ele><time>2026-04-18T11:59:02.001Z</time></trkpt><trkpt lat="41.79821650290686" lon="13.017808781859253"><ele>236.00000000000003</ele><time>2026-04-18T11:59:03.001Z</time></trkpt><trkpt lat="41.798213489325896" lon="13.017900760854644"><ele>236.0</ele><time>2026-04-18T11:59:04.001Z</time></trkpt><trkpt lat="41.798194939147535" lon="13.017983272026353"><ele>236.0</ele><time>2026-04-18T11:59:05.002Z</time></trkpt><trkpt lat="41.79818813909805" lon="13.018080246695103"><ele>236.0</ele><time>2026-04-18T11:59:06.002Z</time></trkpt><trkpt lat="41.79819344279267" lon="13.018168845882796"><ele>236.00000000000003</ele><time>2026-04-18T11:59:07.002Z</time></trkpt><trkpt lat="41.79818473393954" lon="13.018254633615289"><ele>236.0</ele><time>2026-04-18T11:59:08.002Z</time></trkpt><trkpt lat="41.79816641681345" lon="13.018413183380407"><ele>236.0</ele><time>2026-04-18T11:59:10.002Z</time></trkpt><trkpt lat="41.79815549641512" lon="13.018556763542266"><ele>236.00000000000003</ele><time>2026-04-18T11:59:12.002Z</time></trkpt><trkpt lat="41.798125172529595" lon="13.018666404287462"><ele>236.00000000000003</ele><time>2026-04-18T11:59:14.002Z</time></trkpt><trkpt lat="41.79825155413896" lon="13.01873549706695"><ele>236.0</ele><time>2026-04-18T11:59:16.002Z</time></trkpt><trkpt lat="41.79832807258544" lon="13.018753067718594"><ele>236.0</ele><time>2026-04-18T11:59:17.002Z</time></trkpt><trkpt lat="41.79842518876128" lon="13.018766186342486"><ele>236.0</ele><time>2026-04-18T11:59:18.002Z</time></trkpt><trkpt lat="41.7985247944496" lon="13.018780691732585"><ele>236.0</ele><time>2026-04-18T11:59:19.002Z</time></trkpt><trkpt lat="41.79863436523574" lon="13.018799259068249"><ele>236.0</ele><time>2026-04-18T11:59:20.002Z</time></trkpt><trkpt lat="41.798767765247334" lon="13.018790934278382"><ele>236.0</ele><time>2026-04-18T11:59:21.002Z</time></trkpt><trkpt lat="41.79891002610456" lon="13.018775667168928"><ele>236.0</ele><time>2026-04-18T11:59:22.002Z</time></trkpt><trkpt lat="41.79902784834659" lon="13.018761143829682"><ele>236.00000000000003</ele><time>2026-04-18T11:59:23.002Z</time></trkpt><trkpt lat="41.79913218132264" lon="13.018750566463815"><ele>236.00000000000003</ele><time>2026-04-18T11:59:24.002Z</time></trkpt><trkpt lat="41.79922525669796" lon="13.018745409241586"><ele>236.0</ele><time>2026-04-18T11:59:25.002Z</time></trkpt><trkpt lat="41.79930542034428" lon="13.01873151419764"><ele>236.0</ele><time>2026-04-18T11:59:26.002Z</time></trkpt><trkpt lat="41.799389109212754" lon="13.018752657439128"><ele>236.0</ele><time>2026-04-18T11:59:27.002Z</time></trkpt><trkpt lat="41.79946541444239" lon="13.01873235773761"><ele>236.00000000000003</ele><time>2026-04-18T11:59:28.002Z</time></trkpt><trkpt lat="41.79953605365612" lon="13.018738886680323"><ele>236.00000000000003</ele><time>2026-04-18T11:59:29.002Z</time></trkpt><trkpt lat="41.79962071186543" lon="13.018791220836293"><ele>236.0</ele><time>2026-04-18T11:59:31.002Z</time></trkpt><trkpt lat="41.79962252354522" lon="13.018914897623494"><ele>236.0</ele><time>2026-04-18T11:59:33.002Z</time></trkpt><trkpt lat="41.79959787844407" lon="13.019095114488172"><ele>236.60000000000002</ele><time>2026-04-18T11:59:35.002Z</time></trkpt><trkpt lat="41.799601910453426" lon="13.019219961674768"><ele>237.20000000000002</ele><time>2026-04-18T11:59:36.002Z</time></trkpt><trkpt lat="41.79958923026211" lon="13.019344500539656"><ele>237.79999999999998</ele><time>2026-04-18T11:59:37.002Z</time></trkpt><trkpt lat="41.799575643151314" lon="13.019467683219222"><ele>238.39999999999998</ele><time>2026-04-18T11:59:38.001Z</time></trkpt><trkpt lat="41.79955867846999" lon="13.019569960426264"><ele>239.0</ele><time>2026-04-18T11:59:39.001Z</time></trkpt><trkpt lat="41.79955282905494" lon="13.019736206059058"><ele>239.00000000000003</ele><time>2026-04-18T11:59:41.001Z</time></trkpt><trkpt lat="41.799587737015514" lon="13.019829396589193"><ele>239.0</ele><time>2026-04-18T11:59:42.001Z</time></trkpt><trkpt lat="41.79964840708872" lon="13.019920312839123"><ele>239.0</ele><time>2026-04-18T11:59:43.001Z</time></trkpt><trkpt lat="41.79972137793266" lon="13.020003635522201"><ele>239.0</ele><time>2026-04-18T11:59:44.001Z</time></trkpt><trkpt lat="41.7997911920551" lon="13.02007972266853"><ele>239.00000000000003</ele><time>2026-04-18T11:59:45.001Z</time></trkpt><trkpt lat="41.799859690983936" lon="13.020156531324142"><ele>239.0</ele><time>2026-04-18T11:59:46.001Z</time></trkpt><trkpt lat="41.79991851122527" lon="13.02024833056266"><ele>240.66666666666669</ele><time>2026-04-18T11:59:47.001Z</time></trkpt><trkpt lat="41.79996755937739" lon="13.020343312344169"><ele>242.33333333333334</ele><time>2026-04-18T11:59:48.001Z</time></trkpt><trkpt lat="41.80000966838919" lon="13.020432794640811"><ele>244.0</ele><time>2026-04-18T11:59:49.001Z</time></trkpt><trkpt lat="41.80005476119857" lon="13.020522448339294"><ele>245.66666666666669</ele><time>2026-04-18T11:59:50.001Z</time></trkpt><trkpt lat="41.80010231887662" lon="13.020610428287444"><ele>247.33333333333334</ele><time>2026-04-18T11:59:51.001Z</time></trkpt><trkpt lat="41.80014396266799" lon="13.02069243071346"><ele>249.0</ele><time>2026-04-18T11:59:52.001Z</time></trkpt><trkpt lat="41.800183389786" lon="13.020775036774143"><ele>250.5</ele><time>2026-04-18T11:59:53.001Z</time></trkpt><trkpt lat="41.8002283306796" lon="13.02085544338646"><ele>252.0</ele><time>2026-04-18T11:59:54.001Z</time></trkpt><trkpt lat="41.800276727377636" lon="13.020940908245901"><ele>253.5</ele><time>2026-04-18T11:59:55.001Z</time></trkpt><trkpt lat="41.80032516946254" lon="13.02102897570894"><ele>255.0</ele><time>2026-04-18T11:59:56.001Z</time></trkpt><trkpt lat="41.80035052093145" lon="13.021136482445952"><ele>256.5</ele><time>2026-04-18T11:59:57.001Z</time></trkpt><trkpt lat="41.80039693378712" lon="13.021232817762067"><ele>258.0</ele><time>2026-04-18T11:59:58.001Z</time></trkpt><trkpt lat="41.80042152272968" lon="13.021339921957484"><ele>258.0</ele><time>2026-04-18T11:59:59.001Z</time></trkpt><trkpt lat="41.800445785664984" lon="13.021446315452646"><ele>258.0</ele><time>2026-04-18T12:00:00.001Z</time></trkpt><trkpt lat="41.800469112992225" lon="13.021551239515423"><ele>258.0</ele><time>2026-04-18T12:00:01.001Z</time></trkpt><trkpt lat="41.80049195330158" lon="13.02165092129535"><ele>258.0</ele><time>2026-04-18T12:00:02.001Z</time></trkpt><trkpt lat="41.80051223201755" lon="13.021750088981689"><ele>258.0</ele><time>2026-04-18T12:00:03.001Z</time></trkpt><trkpt lat="41.8005305334225" lon="13.021849820332257"><ele>258.0</ele><time>2026-04-18T12:00:04.001Z</time></trkpt><trkpt lat="41.800546196508066" lon="13.021967304510405"><ele>259.0</ele><time>2026-04-18T12:00:05.001Z</time></trkpt><trkpt lat="41.80056447271092" lon="13.022089860736576"><ele>260.0</ele><time>2026-04-18T12:00:06.001Z</time></trkpt><trkpt lat="41.80058263120207" lon="13.022202540285617"><ele>261.0</ele><time>2026-04-18T12:00:07.001Z</time></trkpt><trkpt lat="41.800595797776595" lon="13.022301757048348"><ele>262.0</ele><time>2026-04-18T12:00:08.001Z</time></trkpt><trkpt lat="41.800606357697184" lon="13.02239126077935"><ele>263.0</ele><time>2026-04-18T12:00:09.001Z</time></trkpt><trkpt lat="41.80061872405999" lon="13.022538744237739"><ele>264.0</ele><time>2026-04-18T12:00:11.001Z</time></trkpt><trkpt lat="41.80064416684817" lon="13.022669540167248"><ele>264.59999999999997</ele><time>2026-04-18T12:00:13.001Z</time></trkpt><trkpt lat="41.80065821827153" lon="13.022760128549198"><ele>265.2</ele><time>2026-04-18T12:00:14.001Z</time></trkpt><trkpt lat="41.80074972640757" lon="13.02285794484061"><ele>265.79999999999995</ele><time>2026-04-18T12:00:16.001Z</time></trkpt><trkpt lat="41.80082369091097" lon="13.022921784366453"><ele>266.4</ele><time>2026-04-18T12:00:18.001Z</time></trkpt><trkpt lat="41.800766709831606" lon="13.023036010378721"><ele>267.0</ele><time>2026-04-18T12:00:21.001Z</time></trkpt><trkpt lat="41.80068784313877" lon="13.023159243845344"><ele>267.0</ele><time>2026-04-18T12:00:23.001Z</time></trkpt><trkpt lat="41.80063792284558" lon="13.023225311437253"><ele>267.0</ele><time>2026-04-18T12:00:24.001Z</time></trkpt><trkpt lat="41.800576563791196" lon="13.023315650334572"><ele>267.0</ele><time>2026-04-18T12:00:25.001Z</time></trkpt><trkpt lat="41.800508573758094" lon="13.023410229182543"><ele>267.0</ele><time>2026-04-18T12:00:26.001Z</time></trkpt><trkpt lat="41.80042576884103" lon="13.02351024892413"><ele>267.0</ele><time>2026-04-18T12:00:27.001Z</time></trkpt><trkpt lat="41.80033868378628" lon="13.023633747816799"><ele>267.0</ele><time>2026-04-18T12:00:28.001Z</time></trkpt><trkpt lat="41.80025130343651" lon="13.02376002326748"><ele>267.0</ele><time>2026-04-18T12:00:29.001Z</time></trkpt><trkpt lat="41.80016797878091" lon="13.023873603524493"><ele>267.0</ele><time>2026-04-18T12:00:30.001Z</time></trkpt><trkpt lat="41.80009529862188" lon="13.023987742821017"><ele>267.0</ele><time>2026-04-18T12:00:31.001Z</time></trkpt><trkpt lat="41.800026173732554" lon="13.024098684548337"><ele>265.75</ele><time>2026-04-18T12:00:32.001Z</time></trkpt><trkpt lat="41.799939148280124" lon="13.024212648261226"><ele>264.5</ele><time>2026-04-18T12:00:33.001Z</time></trkpt><trkpt lat="41.79986016331958" lon="13.024327673153312"><ele>263.25</ele><time>2026-04-18T12:00:34.001Z</time></trkpt><trkpt lat="41.79978681431252" lon="13.024438496345574"><ele>262.0</ele><time>2026-04-18T12:00:35.001Z</time></trkpt><trkpt lat="41.7997143436478" lon="13.024538660635232"><ele>262.0</ele><time>2026-04-18T12:00:36.001Z</time></trkpt><trkpt lat="41.79964566615474" lon="13.02463552211616"><ele>262.0</ele><time>2026-04-18T12:00:37.001Z</time></trkpt><trkpt lat="41.79958622806075" lon="13.024730603390163"><ele>262.0</ele><time>2026-04-18T12:00:38.001Z</time></trkpt><trkpt lat="41.79952103902406" lon="13.024820515674277"><ele>262.0</ele><time>2026-04-18T12:00:39.001Z</time></trkpt><trkpt lat="41.79945194948451" lon="13.024915488456227"><ele>262.0</ele><time>2026-04-18T12:00:40.001Z</time></trkpt><trkpt lat="41.79935380477857" lon="13.024964960805937"><ele>262.0</ele><time>2026-04-18T12:00:41.001Z</time></trkpt><trkpt lat="41.79926373349739" lon="13.025036774363238"><ele>262.0</ele><time>2026-04-18T12:00:42.001Z</time></trkpt><trkpt lat="41.799167713780285" lon="13.02510967494444"><ele>262.0</ele><time>2026-04-18T12:00:43.001Z</time></trkpt><trkpt lat="41.79907669505902" lon="13.025197920200917"><ele>262.0</ele><time>2026-04-18T12:00:44.001Z</time></trkpt><trkpt lat="41.798986078113586" lon="13.025268087473385"><ele>262.0</ele><time>2026-04-18T12:00:45.001Z</time></trkpt><trkpt lat="41.79890500223742" lon="13.025338263049996"><ele>262.0</ele><time>2026-04-18T12:00:46.001Z</time></trkpt><trkpt lat="41.798840903251595" lon="13.02539504073951"><ele>262.0</ele><time>2026-04-18T12:00:47.001Z</time></trkpt><trkpt lat="41.798785444883855" lon="13.025455976749763"><ele>262.0</ele><time>2026-04-18T12:00:48.001Z</time></trkpt><trkpt lat="41.798736275481886" lon="13.025532872647913"><ele>262.0</ele><time>2026-04-18T12:00:49.001Z</time></trkpt><trkpt lat="41.798685586160055" lon="13.025621419559219"><ele>262.0</ele><time>2026-04-18T12:00:50.001Z</time></trkpt><trkpt lat="41.79864373023451" lon="13.025710067265694"><ele>262.0</ele><time>2026-04-18T12:00:51.001Z</time></trkpt><trkpt lat="41.79860108889537" lon="13.02578937420024"><ele>261.6</ele><time>2026-04-18T12:00:52.001Z</time></trkpt><trkpt lat="41.79857676788018" lon="13.025893278447318"><ele>261.2</ele><time>2026-04-18T12:00:53.001Z</time></trkpt><trkpt lat="41.798558721525204" lon="13.026029514271102"><ele>260.8</ele><time>2026-04-18T12:00:54.001Z</time></trkpt><trkpt lat="41.79853542417923" lon="13.026165404989591"><ele>260.4</ele><time>2026-04-18T12:00:55.001Z</time></trkpt><trkpt lat="41.79850471170058" lon="13.02630806577222"><ele>260.0</ele><time>2026-04-18T12:00:56.001Z</time></trkpt><trkpt lat="41.798473302986864" lon="13.026450840252634"><ele>258.6666666666667</ele><time>2026-04-18T12:00:57.001Z</time></trkpt><trkpt lat="41.798442545568335" lon="13.026579449857179"><ele>257.33333333333337</ele><time>2026-04-18T12:00:58.001Z</time></trkpt><trkpt lat="41.798423279849985" lon="13.02668444098684"><ele>256.0</ele><time>2026-04-18T12:00:59.001Z</time></trkpt><trkpt lat="41.798402213581056" lon="13.026771201595992"><ele>254.66666666666669</ele><time>2026-04-18T12:01:00.001Z</time></trkpt><trkpt lat="41.79834648269336" lon="13.026851724552243"><ele>253.33333333333334</ele><time>2026-04-18T12:01:02.002Z</time></trkpt><trkpt lat="41.79823861400438" lon="13.026855137128484"><ele>252.0</ele><time>2026-04-18T12:01:05.002Z</time></trkpt><trkpt lat="41.79817156287398" lon="13.026838482670989"><ele>251.6</ele><time>2026-04-18T12:01:06.002Z</time></trkpt><trkpt lat="41.79809397987835" lon="13.026839912477993"><ele>251.2</ele><time>2026-04-18T12:01:07.002Z</time></trkpt><trkpt lat="41.798010948388985" lon="13.02681793820011"><ele>250.8</ele><time>2026-04-18T12:01:08.002Z</time></trkpt><trkpt lat="41.797910302615946" lon="13.026841213922365"><ele>250.4</ele><time>2026-04-18T12:01:09.002Z</time></trkpt><trkpt lat="41.797825811629615" lon="13.026909531075654"><ele>250.0</ele><time>2026-04-18T12:01:10.002Z</time></trkpt><trkpt lat="41.797757870153305" lon="13.027004873282483"><ele>250.0</ele><time>2026-04-18T12:01:11.002Z</time></trkpt><trkpt lat="41.797730497725574" lon="13.027116426026856"><ele>250.0</ele><time>2026-04-18T12:01:12.002Z</time></trkpt><trkpt lat="41.79773205327262" lon="13.027253223018864"><ele>250.0</ele><time>2026-04-18T12:01:13.002Z</time></trkpt><trkpt lat="41.797743463766956" lon="13.027377899874155"><ele>250.0</ele><time>2026-04-18T12:01:14.002Z</time></trkpt><trkpt lat="41.79777116410021" lon="13.027480762134742"><ele>250.0</ele><time>2026-04-18T12:01:15.002Z</time></trkpt><trkpt lat="41.79782309583507" lon="13.027586007983158"><ele>251.25</ele><time>2026-04-18T12:01:16.002Z</time></trkpt><trkpt lat="41.79789375948818" lon="13.027708026530085"><ele>252.5</ele><time>2026-04-18T12:01:17.002Z</time></trkpt><trkpt lat="41.79798963565963" lon="13.027841393183916"><ele>253.75</ele><time>2026-04-18T12:01:18.002Z</time></trkpt><trkpt lat="41.79807217735091" lon="13.02798241006465"><ele>255.0</ele><time>2026-04-18T12:01:19.002Z</time></trkpt><trkpt lat="41.79814189843503" lon="13.028125117998965"><ele>255.0</ele><time>2026-04-18T12:01:20.002Z</time></trkpt><trkpt lat="41.798204345132326" lon="13.028279461057569"><ele>255.0</ele><time>2026-04-18T12:01:21.002Z</time></trkpt><trkpt lat="41.79822225651044" lon="13.02843182227386"><ele>255.0</ele><time>2026-04-18T12:01:22.002Z</time></trkpt><trkpt lat="41.79820688490312" lon="13.028561684182574"><ele>255.0</ele><time>2026-04-18T12:01:23.002Z</time></trkpt><trkpt lat="41.798176741614064" lon="13.02868847321973"><ele>255.0</ele><time>2026-04-18T12:01:24.002Z</time></trkpt><trkpt lat="41.79815708922635" lon="13.028801104214756"><ele>254.83333333333334</ele><time>2026-04-18T12:01:25.002Z</time></trkpt><trkpt lat="41.798155186944626" lon="13.028908410690557"><ele>254.66666666666669</ele><time>2026-04-18T12:01:26.002Z</time></trkpt><trkpt lat="41.79813460300541" lon="13.029001969583321"><ele>254.5</ele><time>2026-04-18T12:01:27.002Z</time></trkpt><trkpt lat="41.798122581845966" lon="13.02910163866142"><ele>254.33333333333334</ele><time>2026-04-18T12:01:28.002Z</time></trkpt><trkpt lat="41.798113786888926" lon="13.02921312477833"><ele>254.16666666666669</ele><time>2026-04-18T12:01:29.002Z</time></trkpt><trkpt lat="41.79811068988053" lon="13.029327227415896"><ele>254.0</ele><time>2026-04-18T12:01:30.002Z</time></trkpt><trkpt lat="41.79811038585404" lon="13.02945366613098"><ele>254.00000000000003</ele><time>2026-04-18T12:01:31.002Z</time></trkpt><trkpt lat="41.7981134606882" lon="13.029575540496104"><ele>254.0</ele><time>2026-04-18T12:01:32.002Z</time></trkpt><trkpt lat="41.79812074503982" lon="13.029704010136705"><ele>254.0</ele><time>2026-04-18T12:01:33.002Z</time></trkpt><trkpt lat="41.798125363843624" lon="13.029822028702783"><ele>254.0</ele><time>2026-04-18T12:01:34.002Z</time></trkpt><trkpt lat="41.798127156830446" lon="13.029926787287657"><ele>254.00000000000003</ele><time>2026-04-18T12:01:35.002Z</time></trkpt><trkpt lat="41.79813121062997" lon="13.030019670933225"><ele>254.0</ele><time>2026-04-18T12:01:36.002Z</time></trkpt><trkpt lat="41.79815134305542" lon="13.030190908273354"><ele>254.0</ele><time>2026-04-18T12:01:38.002Z</time></trkpt><trkpt lat="41.79816676773402" lon="13.030285641776366"><ele>254.0</ele><time>2026-04-18T12:01:39.002Z</time></trkpt><trkpt lat="41.79817559529494" lon="13.030382529941594"><ele>254.0</ele><time>2026-04-18T12:01:40.002Z</time></trkpt><trkpt lat="41.79817811040484" lon="13.030482125985705"><ele>254.0</ele><time>2026-04-18T12:01:41.002Z</time></trkpt><trkpt lat="41.7981778077433" lon="13.030582127849312"><ele>254.0</ele><time>2026-04-18T12:01:42.002Z</time></trkpt><trkpt lat="41.7981892887324" lon="13.03067700430919"><ele>254.0</ele><time>2026-04-18T12:01:43.002Z</time></trkpt><trkpt lat="41.79819777523968" lon="13.030782533623734"><ele>254.0</ele><time>2026-04-18T12:01:44.002Z</time></trkpt><trkpt lat="41.79820952273681" lon="13.030896385131847"><ele>254.2</ele><time>2026-04-18T12:01:45.002Z</time></trkpt><trkpt lat="41.79822220235783" lon="13.03101819253283"><ele>254.39999999999998</ele><time>2026-04-18T12:01:46.002Z</time></trkpt><trkpt lat="41.79822294296548" lon="13.031139710850015"><ele>254.6</ele><time>2026-04-18T12:01:47.002Z</time></trkpt><trkpt lat="41.79821205456739" lon="13.031265798458282"><ele>254.8</ele><time>2026-04-18T12:01:48.002Z</time></trkpt><trkpt lat="41.79820691842426" lon="13.031397172081972"><ele>255.0</ele><time>2026-04-18T12:01:49.002Z</time></trkpt><trkpt lat="41.79823192141224" lon="13.031520533586638"><ele>254.8</ele><time>2026-04-18T12:01:50.002Z</time></trkpt><trkpt lat="41.79827258290808" lon="13.031643987645532"><ele>254.6</ele><time>2026-04-18T12:01:51.002Z</time></trkpt><trkpt lat="41.79831769870988" lon="13.031769953450102"><ele>254.39999999999998</ele><time>2026-04-18T12:01:52.002Z</time></trkpt><trkpt lat="41.79835520212711" lon="13.031904444044043"><ele>254.2</ele><time>2026-04-18T12:01:53.002Z</time></trkpt><trkpt lat="41.79839137584813" lon="13.03204310040522"><ele>254.0</ele><time>2026-04-18T12:01:54.002Z</time></trkpt><trkpt lat="41.798425591194686" lon="13.032189133432519"><ele>254.00000000000003</ele><time>2026-04-18T12:01:55.002Z</time></trkpt><trkpt lat="41.798447208526255" lon="13.032313463425576"><ele>254.0</ele><time>2026-04-18T12:01:56.002Z</time></trkpt><trkpt lat="41.79846170292165" lon="13.032419789515613"><ele>254.0</ele><time>2026-04-18T12:01:57.002Z</time></trkpt><trkpt lat="41.7984729728806" lon="13.03251965468782"><ele>254.0</ele><time>2026-04-18T12:01:58.002Z</time></trkpt><trkpt lat="41.79847534549743" lon="13.032626326910735"><ele>254.00000000000003</ele><time>2026-04-18T12:01:59.001Z</time></trkpt><trkpt lat="41.798482750205075" lon="13.032734970330424"><ele>254.0</ele><time>2026-04-18T12:02:00.001Z</time></trkpt><trkpt lat="41.79848584989936" lon="13.032850881879785"><ele>254.6</ele><time>2026-04-18T12:02:01.001Z</time></trkpt><trkpt lat="41.798503972704026" lon="13.032973141430595"><ele>255.2</ele><time>2026-04-18T12:02:02.001Z</time></trkpt><trkpt lat="41.79854869669992" lon="13.033096892442076"><ele>255.79999999999998</ele><time>2026-04-18T12:02:03.001Z</time></trkpt><trkpt lat="41.798610737165305" lon="13.033206166412562"><ele>256.4</ele><time>2026-04-18T12:02:04.001Z</time></trkpt><trkpt lat="41.798678566515434" lon="13.03329305430293"><ele>257.0</ele><time>2026-04-18T12:02:05.001Z</time></trkpt><trkpt lat="41.7987442269587" lon="13.033385399029228"><ele>257.0</ele><time>2026-04-18T12:02:06.001Z</time></trkpt><trkpt lat="41.798801260917195" lon="13.033493688406896"><ele>257.0</ele><time>2026-04-18T12:02:07.001Z</time></trkpt><trkpt lat="41.79880718716067" lon="13.033634101576375"><ele>257.0</ele><time>2026-04-18T12:02:08.001Z</time></trkpt><trkpt lat="41.79881514285573" lon="13.033781911609447"><ele>257.0</ele><time>2026-04-18T12:02:09.001Z</time></trkpt><trkpt lat="41.798843115771724" lon="13.033907756607904"><ele>257.0</ele><time>2026-04-18T12:02:10.001Z</time></trkpt><trkpt lat="41.79885077122568" lon="13.034028344031798"><ele>257.0</ele><time>2026-04-18T12:02:11.001Z</time></trkpt><trkpt lat="41.79886302667762" lon="13.034136274156038"><ele>257.0</ele><time>2026-04-18T12:02:12.001Z</time></trkpt><trkpt lat="41.798868202207316" lon="13.03422746048392"><ele>255.0</ele><time>2026-04-18T12:02:13.001Z</time></trkpt><trkpt lat="41.79881958553103" lon="13.034287077963874"><ele>255.0</ele><time>2026-04-18T12:02:14.001Z</time></trkpt><trkpt lat="41.79877428001402" lon="13.034362630791604"><ele>255.0</ele><time>2026-04-18T12:02:16.001Z</time></trkpt></trkseg></trk></gpx>